Serenea — SVAC6 — position and weather

sailwx.info

Track history (hours):
 
Tides and Currents Weather Stations Pressure Air Temp Water Temp Dewpoint Dewpoint Depression Visibility Wind Speed Wind Dir Waves Ship Positions

Serenea

Last reported at 2018-Feb-25 11:52 UTC. Time now 2018-Feb-25 12:04 UTC.
Position N 47°06' W 002°28'.

Length 274 m; draft 14.4 m.

Type: Tanker. MMSI: 240797000.

Date/timePositionNaut miles runAvg speedWind from/ knotsBaromVisibWave heightAir tempDewpointWater temp
2018-Feb-25 11:52N 47°06' W 002°28'0 0.1
2018-Feb-25 11:31N 47°06' W 002°28'0 0.1
2018-Feb-25 11:00N 47°06' W 002°28'0 0.1
2018-Feb-25 10:27N 47°06' W 002°28'0 0.0
2018-Feb-25 10:00N 47°06' W 002°28'0 0.0
2018-Feb-25 09:30N 47°06' W 002°28'0 0.1
2018-Feb-25 09:00N 47°06' W 002°28'0 0.2
2018-Feb-25 08:30N 47°06' W 002°28'0 0.5
2018-Feb-25 08:00N 47°06' W 002°28'4 8.2
2018-Feb-25 07:30N 47°02' W 002°31'712.7
2018-Feb-25 06:59N 46°59' W 002°40'  
2018-Feb-23 02:48N 38°16' W 011°53'311.8
2018-Feb-23 02:30N 38°13' W 011°54'1411.1
2018-Feb-23 01:15N 37°59' W 011°60'1411.3
2018-Feb-22 23:58N 37°46' W 012°06'56412.2
2018-Feb-21 01:41N 28°50' W 015°38'312.5
2018-Feb-21 01:29N 28°49' W 015°40'612.5
2018-Feb-21 01:00N 28°44' W 015°45'812.6
2018-Feb-21 00:20N 28°38' W 015°51'412.5
2018-Feb-21 00:00N 28°35' W 015°55'612.3
2018-Feb-20 23:30N 28°31' W 016°00'612.2
2018-Feb-20 23:00N 28°27' W 016°06'5 9.7
2018-Feb-20 22:30N 28°24' W 016°10'1 2.7
2018-Feb-20 21:59N 28°25' W 016°12'3 7.2
2018-Feb-20 21:30N 28°22' W 016°14'5 9.6
2018-Feb-20 21:00N 28°18' W 016°16'5 9.3
2018-Feb-20 20:30N 28°14' W 016°18'510.5
2018-Feb-20 20:00N 28°09' W 016°21'  
Track history (hours):
 
Tides and Currents Weather Stations Pressure Air Temp Water Temp Dewpoint Dewpoint Depression Visibility Wind Speed Wind Dir Waves Ship Positions

Serenea

Last reported at 2018-Feb-25 11:52 UTC. Time now 2018-Feb-25 12:04 UTC.
Position N 47°06' W 002°28'.

Length 274 m; draft 14.4 m.

Type: Tanker. MMSI: 240797000.

Date/timePositionNaut miles runAvg speedWind from/ knotsBaromVisibWave heightAir tempDewpointWater temp
2018-Feb-25 11:52N 47°06' W 002°28'0 0.1
2018-Feb-25 11:31N 47°06' W 002°28'0 0.1
2018-Feb-25 11:00N 47°06' W 002°28'0 0.1
2018-Feb-25 10:27N 47°06' W 002°28'0 0.0
2018-Feb-25 10:00N 47°06' W 002°28'0 0.0
2018-Feb-25 09:30N 47°06' W 002°28'0 0.1
2018-Feb-25 09:00N 47°06' W 002°28'0 0.2
2018-Feb-25 08:30N 47°06' W 002°28'0 0.5
2018-Feb-25 08:00N 47°06' W 002°28'4 8.2
2018-Feb-25 07:30N 47°02' W 002°31'712.7
2018-Feb-25 06:59N 46°59' W 002°40'  
2018-Feb-23 02:48N 38°16' W 011°53'311.8
2018-Feb-23 02:30N 38°13' W 011°54'1411.1
2018-Feb-23 01:15N 37°59' W 011°60'1411.3
2018-Feb-22 23:58N 37°46' W 012°06'56412.2
2018-Feb-21 01:41N 28°50' W 015°38'312.5
2018-Feb-21 01:29N 28°49' W 015°40'612.5
2018-Feb-21 01:00N 28°44' W 015°45'812.6
2018-Feb-21 00:20N 28°38' W 015°51'412.5
2018-Feb-21 00:00N 28°35' W 015°55'612.3
2018-Feb-20 23:30N 28°31' W 016°00'612.2
2018-Feb-20 23:00N 28°27' W 016°06'5 9.7
2018-Feb-20 22:30N 28°24' W 016°10'1 2.7
2018-Feb-20 21:59N 28°25' W 016°12'3 7.2
2018-Feb-20 21:30N 28°22' W 016°14'5 9.6
2018-Feb-20 21:00N 28°18' W 016°16'5 9.3
2018-Feb-20 20:30N 28°14' W 016°18'510.5
2018-Feb-20 20:00N 28°09' W 016°21'  

Dump ship's entire track history